sensor_id;sensor_type;location;lat;lon;timestamp;temperature;humidity
34698;DHT22;61391;50.922;6.928;2023-04-30T00:01:27;11.50;99.90
34698;DHT22;61391;50.922;6.928;2023-04-30T00:03:53;11.50;99.90
34698;DHT22;61391;50.922;6.928;2023-04-30T00:06:18;11.40;99.90
34698;DHT22;61391;50.922;6.928;2023-04-30T00:08:44;11.40;99.90
34698;DHT22;61391;50.922;6.928;2023-04-30T00:11:09;11.40;99.90
34698;DHT22;61391;50.922;6.928;2023-04-30T00:13:35;11.40;99.90
34698;DHT22;61391;50.922;6.928;2023-04-30T00:16:00;11.30;99.90
34698;DHT22;61391;50.922;6.928;2023-04-30T00:18:26;11.20;99.90
34698;DHT22;61391;50.922;6.928;2023-04-30T00:20:52;11.10;99.90
34698;DHT22;61391;50.922;6.928;2023-04-30T00:23:18;11.20;99.90
34698;DHT22;61391;50.922;6.928;2023-04-30T00:25:43;11.20;99.90
34698;DHT22;61391;50.922;6.928;2023-04-30T00:28:09;11.10;99.90
34698;DHT22;61391;50.922;6.928;2023-04-30T00:30:34;11.10;99.90
34698;DHT22;61391;50.922;6.928;2023-04-30T00:33:00;11.20;99.90
34698;DHT22;61391;50.922;6.928;2023-04-30T00:35:25;11.20;99.90
34698;DHT22;61391;50.922;6.928;2023-04-30T00:37:51;11.30;99.90
34698;DHT22;61391;50.922;6.928;2023-04-30T00:40:16;11.30;99.90
34698;DHT22;61391;50.922;6.928;2023-04-30T00:42:42;11.20;99.90
34698;DHT22;61391;50.922;6.928;2023-04-30T00:45:08;11.30;99.90
34698;DHT22;61391;50.922;6.928;2023-04-30T00:47:34;11.40;99.90
34698;DHT22;61391;50.922;6.928;2023-04-30T00:49:59;11.40;99.90
34698;DHT22;61391;50.922;6.928;2023-04-30T00:52:26;11.40;99.90
34698;DHT22;61391;50.922;6.928;2023-04-30T00:54:51;11.40;99.90
34698;DHT22;61391;50.922;6.928;2023-04-30T00:57:19;11.40;99.90
34698;DHT22;61391;50.922;6.928;2023-04-30T00:59:45;11.40;99.90
34698;DHT22;61391;50.922;6.928;2023-04-30T01:02:12;11.50;99.90
34698;DHT22;61391;50.922;6.928;2023-04-30T01:04:38;11.30;99.90
34698;DHT22;61391;50.922;6.928;2023-04-30T01:07:04;11.60;99.90
34698;DHT22;61391;50.922;6.928;2023-04-30T01:09:30;11.70;99.90
34698;DHT22;61391;50.922;6.928;2023-04-30T01:12:25;11.60;99.90
34698;DHT22;61391;50.922;6.928;2023-04-30T01:14:59;11.60;99.90
34698;DHT22;61391;50.922;6.928;2023-04-30T01:17:29;11.50;99.90
34698;DHT22;61391;50.922;6.928;2023-04-30T01:19:56;11.40;99.90
34698;DHT22;61391;50.922;6.928;2023-04-30T01:22:27;11.40;99.90
34698;DHT22;61391;50.922;6.928;2023-04-30T01:28:17;11.20;99.90
34698;DHT22;61391;50.922;6.928;2023-04-30T01:30:44;11.20;99.90
34698;DHT22;61391;50.922;6.928;2023-04-30T01:33:11;11.20;99.90
34698;DHT22;61391;50.922;6.928;2023-04-30T01:41:29;10.90;99.90
34698;DHT22;61391;50.922;6.928;2023-04-30T01:46:40;10.80;99.90
34698;DHT22;61391;50.922;6.928;2023-04-30T01:49:22;10.90;99.90
34698;DHT22;61391;50.922;6.928;2023-04-30T01:51:55;10.70;99.90
34698;DHT22;61391;50.922;6.928;2023-04-30T01:54:41;10.60;99.90
34698;DHT22;61391;50.922;6.928;2023-04-30T01:57:17;10.80;99.90
34698;DHT22;61391;50.922;6.928;2023-04-30T01:59:45;10.60;99.90
34698;DHT22;61391;50.922;6.928;2023-04-30T02:02:11;10.60;99.90
34698;DHT22;61391;50.922;6.928;2023-04-30T02:07:59;10.50;99.90
34698;DHT22;61391;50.922;6.928;2023-04-30T02:10:26;10.60;99.90
34698;DHT22;61391;50.922;6.928;2023-04-30T02:12:53;10.50;99.90
34698;DHT22;61391;50.922;6.928;2023-04-30T02:15:19;10.50;99.90
34698;DHT22;61391;50.922;6.928;2023-04-30T02:17:44;10.50;99.90
34698;DHT22;61391;50.922;6.928;2023-04-30T02:20:10;10.40;99.90
34698;DHT22;61391;50.922;6.928;2023-04-30T02:22:36;10.20;99.90
34698;DHT22;61391;50.922;6.928;2023-04-30T02:25:08;10.20;99.90
34698;DHT22;61391;50.922;6.928;2023-04-30T02:27:34;10.30;99.90
34698;DHT22;61391;50.922;6.928;2023-04-30T02:30:00;10.30;99.90
34698;DHT22;61391;50.922;6.928;2023-04-30T02:32:25;10.20;99.90
34698;DHT22;61391;50.922;6.928;2023-04-30T02:34:51;10.30;99.90
34698;DHT22;61391;50.922;6.928;2023-04-30T02:37:17;10.40;99.90
34698;DHT22;61391;50.922;6.928;2023-04-30T02:39:42;10.30;99.90
34698;DHT22;61391;50.922;6.928;2023-04-30T02:42:08;10.20;99.90
34698;DHT22;61391;50.922;6.928;2023-04-30T02:44:34;10.30;99.90
34698;DHT22;61391;50.922;6.928;2023-04-30T02:47:00;10.30;99.90
34698;DHT22;61391;50.922;6.928;2023-04-30T02:49:26;10.30;99.90
34698;DHT22;61391;50.922;6.928;2023-04-30T02:51:53;10.30;99.90
34698;DHT22;61391;50.922;6.928;2023-04-30T02:54:18;10.30;99.90
34698;DHT22;61391;50.922;6.928;2023-04-30T03:00:15;10.40;99.90
34698;DHT22;61391;50.922;6.928;2023-04-30T03:02:42;10.50;99.90
34698;DHT22;61391;50.922;6.928;2023-04-30T03:05:07;10.30;99.90
34698;DHT22;61391;50.922;6.928;2023-04-30T03:07:33;10.20;99.90
34698;DHT22;61391;50.922;6.928;2023-04-30T03:09:59;10.00;99.90
34698;DHT22;61391;50.922;6.928;2023-04-30T03:12:24;10.10;99.90
34698;DHT22;61391;50.922;6.928;2023-04-30T03:14:50;10.00;99.90
34698;DHT22;61391;50.922;6.928;2023-04-30T03:17:16;10.00;99.90
34698;DHT22;61391;50.922;6.928;2023-04-30T03:19:42;9.90;99.90
34698;DHT22;61391;50.922;6.928;2023-04-30T03:22:07;9.90;99.90
34698;DHT22;61391;50.922;6.928;2023-04-30T03:24:33;9.90;99.90
34698;DHT22;61391;50.922;6.928;2023-04-30T03:26:58;9.90;99.90
34698;DHT22;61391;50.922;6.928;2023-04-30T03:29:25;9.90;99.90
34698;DHT22;61391;50.922;6.928;2023-04-30T03:31:51;9.90;99.90
34698;DHT22;61391;50.922;6.928;2023-04-30T03:34:16;9.80;99.90
34698;DHT22;61391;50.922;6.928;2023-04-30T03:36:42;9.90;99.90
34698;DHT22;61391;50.922;6.928;2023-04-30T03:39:25;9.80;99.90
34698;DHT22;61391;50.922;6.928;2023-04-30T03:41:50;9.70;99.90
34698;DHT22;61391;50.922;6.928;2023-04-30T03:44:31;9.80;99.90
34698;DHT22;61391;50.922;6.928;2023-04-30T03:46:57;9.70;99.90
34698;DHT22;61391;50.922;6.928;2023-04-30T03:49:22;9.70;99.90
34698;DHT22;61391;50.922;6.928;2023-04-30T03:51:48;9.60;99.90
34698;DHT22;61391;50.922;6.928;2023-04-30T03:54:13;9.70;99.90
34698;DHT22;61391;50.922;6.928;2023-04-30T03:56:39;9.70;99.90
34698;DHT22;61391;50.922;6.928;2023-04-30T03:59:05;9.70;99.90
34698;DHT22;61391;50.922;6.928;2023-04-30T04:01:31;9.70;99.90
34698;DHT22;61391;50.922;6.928;2023-04-30T04:03:57;9.60;99.90
34698;DHT22;61391;50.922;6.928;2023-04-30T04:06:23;9.60;99.90
34698;DHT22;61391;50.922;6.928;2023-04-30T04:09:18;9.60;99.90
34698;DHT22;61391;50.922;6.928;2023-04-30T04:11:44;9.60;99.90
34698;DHT22;61391;50.922;6.928;2023-04-30T04:14:09;9.40;99.90
34698;DHT22;61391;50.922;6.928;2023-04-30T04:16:36;9.50;99.90
34698;DHT22;61391;50.922;6.928;2023-04-30T04:19:01;9.50;99.90
34698;DHT22;61391;50.922;6.928;2023-04-30T04:21:28;9.50;99.90
34698;DHT22;61391;50.922;6.928;2023-04-30T04:23:54;9.60;99.90
34698;DHT22;61391;50.922;6.928;2023-04-30T04:26:20;9.60;99.90
34698;DHT22;61391;50.922;6.928;2023-04-30T04:28:46;9.50;99.90
34698;DHT22;61391;50.922;6.928;2023-04-30T04:31:12;9.50;99.90
34698;DHT22;61391;50.922;6.928;2023-04-30T04:33:38;9.30;99.90
34698;DHT22;61391;50.922;6.928;2023-04-30T04:36:03;9.30;99.90
34698;DHT22;61391;50.922;6.928;2023-04-30T04:38:29;9.50;99.90
34698;DHT22;61391;50.922;6.928;2023-04-30T04:40:55;9.60;99.90
34698;DHT22;61391;50.922;6.928;2023-04-30T04:43:21;9.50;99.90
34698;DHT22;61391;50.922;6.928;2023-04-30T04:45:46;9.60;99.90
34698;DHT22;61391;50.922;6.928;2023-04-30T04:48:31;9.60;99.90
34698;DHT22;61391;50.922;6.928;2023-04-30T04:50:57;9.60;99.90
34698;DHT22;61391;50.922;6.928;2023-04-30T04:53:22;9.60;99.90
34698;DHT22;61391;50.922;6.928;2023-04-30T04:55:48;9.60;99.90
34698;DHT22;61391;50.922;6.928;2023-04-30T04:58:14;9.60;99.90
34698;DHT22;61391;50.922;6.928;2023-04-30T05:00:39;9.60;99.90
34698;DHT22;61391;50.922;6.928;2023-04-30T05:03:05;9.70;99.90
34698;DHT22;61391;50.922;6.928;2023-04-30T05:05:30;9.80;99.90
34698;DHT22;61391;50.922;6.928;2023-04-30T05:07:56;9.70;99.90
34698;DHT22;61391;50.922;6.928;2023-04-30T05:10:21;9.80;99.90
34698;DHT22;61391;50.922;6.928;2023-04-30T05:12:47;10.00;99.90
34698;DHT22;61391;50.922;6.928;2023-04-30T05:15:12;9.90;99.90
34698;DHT22;61391;50.922;6.928;2023-04-30T05:17:38;10.00;99.90
34698;DHT22;61391;50.922;6.928;2023-04-30T05:20:04;10.20;99.90
34698;DHT22;61391;50.922;6.928;2023-04-30T05:22:56;10.30;99.90
34698;DHT22;61391;50.922;6.928;2023-04-30T05:25:22;10.40;99.90
34698;DHT22;61391;50.922;6.928;2023-04-30T05:27:48;10.60;99.90
34698;DHT22;61391;50.922;6.928;2023-04-30T05:30:13;10.70;99.90
34698;DHT22;61391;50.922;6.928;2023-04-30T05:32:43;10.80;99.90
34698;DHT22;61391;50.922;6.928;2023-04-30T05:35:17;11.00;99.90
34698;DHT22;61391;50.922;6.928;2023-04-30T05:38:05;11.10;99.90
34698;DHT22;61391;50.922;6.928;2023-04-30T05:40:31;11.20;99.90
34698;DHT22;61391;50.922;6.928;2023-04-30T05:42:57;11.30;99.90
34698;DHT22;61391;50.922;6.928;2023-04-30T05:45:23;11.40;99.90
34698;DHT22;61391;50.922;6.928;2023-04-30T05:47:55;11.70;99.90
34698;DHT22;61391;50.922;6.928;2023-04-30T05:50:20;12.30;99.90
34698;DHT22;61391;50.922;6.928;2023-04-30T05:55:54;13.30;99.90
34698;DHT22;61391;50.922;6.928;2023-04-30T05:58:19;13.60;99.90
34698;DHT22;61391;50.922;6.928;2023-04-30T06:00:48;13.40;99.90
34698;DHT22;61391;50.922;6.928;2023-04-30T06:03:14;13.40;99.90
34698;DHT22;61391;50.922;6.928;2023-04-30T06:05:40;13.40;99.90
34698;DHT22;61391;50.922;6.928;2023-04-30T06:08:06;13.10;99.90
34698;DHT22;61391;50.922;6.928;2023-04-30T06:10:31;12.10;99.90
34698;DHT22;61391;50.922;6.928;2023-04-30T06:12:57;11.90;99.90
34698;DHT22;61391;50.922;6.928;2023-04-30T06:15:22;12.00;99.90
34698;DHT22;61391;50.922;6.928;2023-04-30T06:17:48;11.90;99.90
34698;DHT22;61391;50.922;6.928;2023-04-30T06:20:13;12.20;99.90
34698;DHT22;61391;50.922;6.928;2023-04-30T06:22:40;12.70;99.90
34698;DHT22;61391;50.922;6.928;2023-04-30T06:25:06;13.30;99.90
34698;DHT22;61391;50.922;6.928;2023-04-30T06:27:32;14.50;99.90
34698;DHT22;61391;50.922;6.928;2023-04-30T06:29:57;14.30;99.90
34698;DHT22;61391;50.922;6.928;2023-04-30T06:32:25;14.30;99.90
34698;DHT22;61391;50.922;6.928;2023-04-30T06:34:50;13.90;99.90
34698;DHT22;61391;50.922;6.928;2023-04-30T06:37:16;13.30;99.90
34698;DHT22;61391;50.922;6.928;2023-04-30T06:39:43;14.60;99.90
34698;DHT22;61391;50.922;6.928;2023-04-30T06:42:08;15.80;99.90
34698;DHT22;61391;50.922;6.928;2023-04-30T06:44:34;16.60;99.90
34698;DHT22;61391;50.922;6.928;2023-04-30T06:47:00;17.30;99.90
34698;DHT22;61391;50.922;6.928;2023-04-30T06:49:25;16.50;99.90
34698;DHT22;61391;50.922;6.928;2023-04-30T06:51:51;16.90;99.90
34698;DHT22;61391;50.922;6.928;2023-04-30T06:54:31;17.00;99.90
34698;DHT22;61391;50.922;6.928;2023-04-30T06:56:56;18.00;99.90
34698;DHT22;61391;50.922;6.928;2023-04-30T06:59:22;19.10;99.90
34698;DHT22;61391;50.922;6.928;2023-04-30T07:01:48;19.80;99.90
34698;DHT22;61391;50.922;6.928;2023-04-30T07:04:13;18.40;99.90
34698;DHT22;61391;50.922;6.928;2023-04-30T07:06:39;17.00;99.90
34698;DHT22;61391;50.922;6.928;2023-04-30T07:09:04;18.00;99.90
34698;DHT22;61391;50.922;6.928;2023-04-30T07:11:30;18.90;99.90
34698;DHT22;61391;50.922;6.928;2023-04-30T07:13:56;19.60;99.90
34698;DHT22;61391;50.922;6.928;2023-04-30T07:16:24;20.00;99.90
34698;DHT22;61391;50.922;6.928;2023-04-30T07:18:49;20.10;99.90
34698;DHT22;61391;50.922;6.928;2023-04-30T07:21:16;20.20;99.90
34698;DHT22;61391;50.922;6.928;2023-04-30T07:23:42;20.20;99.90
34698;DHT22;61391;50.922;6.928;2023-04-30T07:26:09;21.80;99.90
34698;DHT22;61391;50.922;6.928;2023-04-30T07:28:35;23.00;99.90
34698;DHT22;61391;50.922;6.928;2023-04-30T07:31:00;24.30;96.20
34698;DHT22;61391;50.922;6.928;2023-04-30T07:33:26;25.00;93.20
34698;DHT22;61391;50.922;6.928;2023-04-30T07:35:52;25.00;92.50
34698;DHT22;61391;50.922;6.928;2023-04-30T07:38:20;25.60;91.30
34698;DHT22;61391;50.922;6.928;2023-04-30T07:40:46;26.30;89.00
34698;DHT22;61391;50.922;6.928;2023-04-30T07:43:11;26.20;85.70
34698;DHT22;61391;50.922;6.928;2023-04-30T07:45:37;23.30;92.30
34698;DHT22;61391;50.922;6.928;2023-04-30T07:48:13;24.70;92.70
34698;DHT22;61391;50.922;6.928;2023-04-30T07:50:39;26.60;89.90
34698;DHT22;61391;50.922;6.928;2023-04-30T07:53:05;27.40;83.90
34698;DHT22;61391;50.922;6.928;2023-04-30T07:55:33;27.30;82.50
34698;DHT22;61391;50.922;6.928;2023-04-30T07:57:59;27.00;82.00
34698;DHT22;61391;50.922;6.928;2023-04-30T08:03:51;28.80;77.80
34698;DHT22;61391;50.922;6.928;2023-04-30T08:06:17;28.60;74.60
34698;DHT22;61391;50.922;6.928;2023-04-30T08:08:48;28.20;75.20
34698;DHT22;61391;50.922;6.928;2023-04-30T08:11:18;28.40;76.10
34698;DHT22;61391;50.922;6.928;2023-04-30T08:14:10;28.50;72.70
34698;DHT22;61391;50.922;6.928;2023-04-30T08:16:40;27.20;75.30
34698;DHT22;61391;50.922;6.928;2023-04-30T08:19:28;28.20;74.20
34698;DHT22;61391;50.922;6.928;2023-04-30T08:22:01;28.20;72.50
34698;DHT22;61391;50.922;6.928;2023-04-30T08:24:27;28.40;72.40
34698;DHT22;61391;50.922;6.928;2023-04-30T08:26:52;28.20;72.30
34698;DHT22;61391;50.922;6.928;2023-04-30T08:29:18;28.50;71.60
34698;DHT22;61391;50.922;6.928;2023-04-30T08:31:44;28.50;71.40
34698;DHT22;61391;50.922;6.928;2023-04-30T08:34:10;28.80;71.10
34698;DHT22;61391;50.922;6.928;2023-04-30T08:36:36;29.10;70.30
34698;DHT22;61391;50.922;6.928;2023-04-30T08:39:06;29.00;69.90
34698;DHT22;61391;50.922;6.928;2023-04-30T08:41:32;27.90;70.80
34698;DHT22;61391;50.922;6.928;2023-04-30T08:44:01;27.60;70.40
34698;DHT22;61391;50.922;6.928;2023-04-30T08:46:30;28.20;69.70
34698;DHT22;61391;50.922;6.928;2023-04-30T08:48:56;27.70;68.90
34698;DHT22;61391;50.922;6.928;2023-04-30T08:51:23;26.90;70.80
34698;DHT22;61391;50.922;6.928;2023-04-30T08:53:50;27.50;70.10
34698;DHT22;61391;50.922;6.928;2023-04-30T08:56:17;28.90;68.70
34698;DHT22;61391;50.922;6.928;2023-04-30T08:58:42;30.30;67.40
34698;DHT22;61391;50.922;6.928;2023-04-30T09:01:09;31.10;66.70
34698;DHT22;61391;50.922;6.928;2023-04-30T09:03:35;31.20;65.20
34698;DHT22;61391;50.922;6.928;2023-04-30T09:06:01;30.60;63.10
34698;DHT22;61391;50.922;6.928;2023-04-30T09:08:43;31.30;62.80
34698;DHT22;61391;50.922;6.928;2023-04-30T09:11:28;31.50;62.40
34698;DHT22;61391;50.922;6.928;2023-04-30T09:13:56;31.60;59.90
34698;DHT22;61391;50.922;6.928;2023-04-30T09:16:24;30.90;59.20
34698;DHT22;61391;50.922;6.928;2023-04-30T09:18:51;31.30;59.90
34698;DHT22;61391;50.922;6.928;2023-04-30T09:21:33;31.80;59.00
34698;DHT22;61391;50.922;6.928;2023-04-30T09:24:01;33.00;58.70
34698;DHT22;61391;50.922;6.928;2023-04-30T09:26:35;32.60;55.60
34698;DHT22;61391;50.922;6.928;2023-04-30T09:29:01;31.80;55.80
34698;DHT22;61391;50.922;6.928;2023-04-30T09:31:36;31.30;57.70
34698;DHT22;61391;50.922;6.928;2023-04-30T09:34:02;31.00;58.10
34698;DHT22;61391;50.922;6.928;2023-04-30T09:36:28;31.30;56.70
34698;DHT22;61391;50.922;6.928;2023-04-30T09:38:54;31.80;56.30
34698;DHT22;61391;50.922;6.928;2023-04-30T09:41:31;32.30;57.30
34698;DHT22;61391;50.922;6.928;2023-04-30T09:43:57;31.60;57.00
34698;DHT22;61391;50.922;6.928;2023-04-30T09:46:33;32.10;57.30
34698;DHT22;61391;50.922;6.928;2023-04-30T09:49:02;32.50;56.20
34698;DHT22;61391;50.922;6.928;2023-04-30T09:51:31;33.00;54.40
34698;DHT22;61391;50.922;6.928;2023-04-30T09:53:57;32.50;53.90
34698;DHT22;61391;50.922;6.928;2023-04-30T09:56:24;32.40;56.00
34698;DHT22;61391;50.922;6.928;2023-04-30T09:58:52;31.70;55.00
34698;DHT22;61391;50.922;6.928;2023-04-30T10:01:20;30.90;56.60
34698;DHT22;61391;50.922;6.928;2023-04-30T10:03:46;30.40;57.70
34698;DHT22;61391;50.922;6.928;2023-04-30T10:06:13;30.50;58.60
34698;DHT22;61391;50.922;6.928;2023-04-30T10:08:47;31.10;57.40
34698;DHT22;61391;50.922;6.928;2023-04-30T10:11:18;31.10;57.40
34698;DHT22;61391;50.922;6.928;2023-04-30T10:14:12;29.40;57.50
34698;DHT22;61391;50.922;6.928;2023-04-30T10:16:53;30.10;58.40
34698;DHT22;61391;50.922;6.928;2023-04-30T10:19:22;30.70;55.90
34698;DHT22;61391;50.922;6.928;2023-04-30T10:21:49;31.70;55.20
34698;DHT22;61391;50.922;6.928;2023-04-30T10:24:16;31.80;55.70
34698;DHT22;61391;50.922;6.928;2023-04-30T10:26:46;32.30;56.30
34698;DHT22;61391;50.922;6.928;2023-04-30T10:29:13;32.90;55.40
34698;DHT22;61391;50.922;6.928;2023-04-30T10:31:40;33.20;54.50
34698;DHT22;61391;50.922;6.928;2023-04-30T10:34:34;33.20;54.40
34698;DHT22;61391;50.922;6.928;2023-04-30T10:37:07;33.50;54.60
34698;DHT22;61391;50.922;6.928;2023-04-30T10:39:36;33.50;53.80
34698;DHT22;61391;50.922;6.928;2023-04-30T10:42:04;33.50;54.50
34698;DHT22;61391;50.922;6.928;2023-04-30T10:44:35;32.50;54.30
34698;DHT22;61391;50.922;6.928;2023-04-30T10:47:02;31.90;54.50
34698;DHT22;61391;50.922;6.928;2023-04-30T10:49:29;32.10;54.40
34698;DHT22;61391;50.922;6.928;2023-04-30T10:51:58;33.10;54.30
34698;DHT22;61391;50.922;6.928;2023-04-30T10:54:34;34.10;55.10
34698;DHT22;61391;50.922;6.928;2023-04-30T10:57:14;32.80;54.40
34698;DHT22;61391;50.922;6.928;2023-04-30T10:59:52;30.90;54.60
34698;DHT22;61391;50.922;6.928;2023-04-30T11:02:18;29.70;56.50
34698;DHT22;61391;50.922;6.928;2023-04-30T11:07:32;27.10;58.40
34698;DHT22;61391;50.922;6.928;2023-04-30T11:09:57;26.40;61.00
34698;DHT22;61391;50.922;6.928;2023-04-30T11:12:26;25.80;61.10
34698;DHT22;61391;50.922;6.928;2023-04-30T11:15:12;26.20;62.00
34698;DHT22;61391;50.922;6.928;2023-04-30T11:17:37;26.80;59.60
34698;DHT22;61391;50.922;6.928;2023-04-30T11:20:03;27.10;60.00
34698;DHT22;61391;50.922;6.928;2023-04-30T11:22:30;26.60;60.30
34698;DHT22;61391;50.922;6.928;2023-04-30T11:25:09;25.80;62.50
34698;DHT22;61391;50.922;6.928;2023-04-30T11:27:36;25.00;63.00
34698;DHT22;61391;50.922;6.928;2023-04-30T11:30:08;24.50;64.80
34698;DHT22;61391;50.922;6.928;2023-04-30T11:32:36;23.60;67.00
34698;DHT22;61391;50.922;6.928;2023-04-30T11:35:03;23.40;67.60
34698;DHT22;61391;50.922;6.928;2023-04-30T11:39:59;23.70;66.60
34698;DHT22;61391;50.922;6.928;2023-04-30T11:42:26;23.80;65.20
34698;DHT22;61391;50.922;6.928;2023-04-30T11:44:53;23.40;64.90
34698;DHT22;61391;50.922;6.928;2023-04-30T11:47:19;23.40;65.60
34698;DHT22;61391;50.922;6.928;2023-04-30T11:49:45;22.60;67.50
34698;DHT22;61391;50.922;6.928;2023-04-30T11:52:12;22.00;69.80
34698;DHT22;61391;50.922;6.928;2023-04-30T11:54:38;21.50;71.00
34698;DHT22;61391;50.922;6.928;2023-04-30T11:57:07;21.40;73.50
34698;DHT22;61391;50.922;6.928;2023-04-30T11:59:40;21.90;71.10
34698;DHT22;61391;50.922;6.928;2023-04-30T12:02:06;22.30;70.20
34698;DHT22;61391;50.922;6.928;2023-04-30T12:04:32;22.30;71.00
34698;DHT22;61391;50.922;6.928;2023-04-30T12:06:59;22.40;70.10
34698;DHT22;61391;50.922;6.928;2023-04-30T12:09:25;22.10;70.60
34698;DHT22;61391;50.922;6.928;2023-04-30T12:11:50;22.30;71.10
34698;DHT22;61391;50.922;6.928;2023-04-30T12:14:16;22.40;69.30
34698;DHT22;61391;50.922;6.928;2023-04-30T12:16:48;22.20;70.00
34698;DHT22;61391;50.922;6.928;2023-04-30T12:19:15;20.90;72.60
34698;DHT22;61391;50.922;6.928;2023-04-30T12:21:42;21.10;74.10
34698;DHT22;61391;50.922;6.928;2023-04-30T12:24:16;21.10;73.50
34698;DHT22;61391;50.922;6.928;2023-04-30T12:26:42;21.20;73.70
34698;DHT22;61391;50.922;6.928;2023-04-30T12:29:15;21.00;73.70
34698;DHT22;61391;50.922;6.928;2023-04-30T12:31:41;20.90;72.30
34698;DHT22;61391;50.922;6.928;2023-04-30T12:34:10;20.90;71.20
34698;DHT22;61391;50.922;6.928;2023-04-30T12:36:36;21.20;72.40
34698;DHT22;61391;50.922;6.928;2023-04-30T12:39:07;21.80;70.00
34698;DHT22;61391;50.922;6.928;2023-04-30T12:41:39;21.90;70.90
34698;DHT22;61391;50.922;6.928;2023-04-30T12:44:21;21.70;72.40
34698;DHT22;61391;50.922;6.928;2023-04-30T12:46:49;21.60;73.20
34698;DHT22;61391;50.922;6.928;2023-04-30T12:49:26;20.90;73.50
34698;DHT22;61391;50.922;6.928;2023-04-30T12:52:09;21.00;73.70
34698;DHT22;61391;50.922;6.928;2023-04-30T12:54:36;21.00;72.80
34698;DHT22;61391;50.922;6.928;2023-04-30T12:57:08;21.00;70.00
34698;DHT22;61391;50.922;6.928;2023-04-30T12:59:39;21.40;69.40
34698;DHT22;61391;50.922;6.928;2023-04-30T13:02:23;22.10;67.90
34698;DHT22;61391;50.922;6.928;2023-04-30T13:04:49;22.20;68.30
34698;DHT22;61391;50.922;6.928;2023-04-30T13:07:15;22.50;68.40
34698;DHT22;61391;50.922;6.928;2023-04-30T13:09:41;22.60;67.80
34698;DHT22;61391;50.922;6.928;2023-04-30T13:12:06;21.90;69.80
34698;DHT22;61391;50.922;6.928;2023-04-30T13:17:54;22.30;69.20
34698;DHT22;61391;50.922;6.928;2023-04-30T13:20:20;21.70;71.30
34698;DHT22;61391;50.922;6.928;2023-04-30T13:22:45;21.90;73.10
34698;DHT22;61391;50.922;6.928;2023-04-30T13:25:11;22.00;71.10
34698;DHT22;61391;50.922;6.928;2023-04-30T13:27:37;21.90;71.40
34698;DHT22;61391;50.922;6.928;2023-04-30T13:30:03;21.70;69.90
34698;DHT22;61391;50.922;6.928;2023-04-30T13:32:29;21.30;69.20
34698;DHT22;61391;50.922;6.928;2023-04-30T13:34:54;20.70;70.20
34698;DHT22;61391;50.922;6.928;2023-04-30T13:37:21;20.30;70.90
34698;DHT22;61391;50.922;6.928;2023-04-30T13:39:46;20.80;70.80
34698;DHT22;61391;50.922;6.928;2023-04-30T13:42:15;21.40;68.60
34698;DHT22;61391;50.922;6.928;2023-04-30T13:44:42;21.30;69.10
34698;DHT22;61391;50.922;6.928;2023-04-30T13:47:10;20.60;71.30
34698;DHT22;61391;50.922;6.928;2023-04-30T13:49:43;20.90;71.70
34698;DHT22;61391;50.922;6.928;2023-04-30T13:52:09;20.80;71.50
34698;DHT22;61391;50.922;6.928;2023-04-30T13:54:34;21.30;70.70
34698;DHT22;61391;50.922;6.928;2023-04-30T13:57:01;21.50;71.20
34698;DHT22;61391;50.922;6.928;2023-04-30T13:59:27;21.90;72.30
34698;DHT22;61391;50.922;6.928;2023-04-30T14:01:53;21.70;70.90
34698;DHT22;61391;50.922;6.928;2023-04-30T14:04:19;22.10;70.50
34698;DHT22;61391;50.922;6.928;2023-04-30T14:06:45;22.10;70.60
34698;DHT22;61391;50.922;6.928;2023-04-30T14:09:11;22.30;70.30
34698;DHT22;61391;50.922;6.928;2023-04-30T14:11:37;22.30;69.10
34698;DHT22;61391;50.922;6.928;2023-04-30T14:14:03;22.00;68.70
34698;DHT22;61391;50.922;6.928;2023-04-30T14:16:30;21.60;69.80
34698;DHT22;61391;50.922;6.928;2023-04-30T14:18:56;21.10;70.80
34698;DHT22;61391;50.922;6.928;2023-04-30T14:21:22;21.20;71.80
34698;DHT22;61391;50.922;6.928;2023-04-30T14:23:47;21.10;71.10
34698;DHT22;61391;50.922;6.928;2023-04-30T14:26:13;21.10;71.20
34698;DHT22;61391;50.922;6.928;2023-04-30T14:28:39;20.90;72.00
34698;DHT22;61391;50.922;6.928;2023-04-30T14:31:04;20.90;72.50
34698;DHT22;61391;50.922;6.928;2023-04-30T14:33:30;20.90;72.20
34698;DHT22;61391;50.922;6.928;2023-04-30T14:36:02;20.40;71.60
34698;DHT22;61391;50.922;6.928;2023-04-30T14:38:28;20.00;74.00
34698;DHT22;61391;50.922;6.928;2023-04-30T14:40:53;20.00;74.80
34698;DHT22;61391;50.922;6.928;2023-04-30T14:43:19;20.30;75.20
34698;DHT22;61391;50.922;6.928;2023-04-30T14:45:45;20.50;74.10
34698;DHT22;61391;50.922;6.928;2023-04-30T14:48:12;20.40;73.30
34698;DHT22;61391;50.922;6.928;2023-04-30T14:50:38;20.20;72.80
34698;DHT22;61391;50.922;6.928;2023-04-30T14:53:04;20.30;73.30
34698;DHT22;61391;50.922;6.928;2023-04-30T14:55:30;20.80;73.10
34698;DHT22;61391;50.922;6.928;2023-04-30T14:57:56;20.90;71.90
34698;DHT22;61391;50.922;6.928;2023-04-30T15:00:22;20.60;76.00
34698;DHT22;61391;50.922;6.928;2023-04-30T15:02:48;20.90;75.20
34698;DHT22;61391;50.922;6.928;2023-04-30T15:05:13;20.80;74.70
34698;DHT22;61391;50.922;6.928;2023-04-30T15:07:39;20.90;75.20
34698;DHT22;61391;50.922;6.928;2023-04-30T15:10:05;21.30;74.10
34698;DHT22;61391;50.922;6.928;2023-04-30T15:12:31;21.40;74.00
34698;DHT22;61391;50.922;6.928;2023-04-30T15:14:57;21.50;73.10
34698;DHT22;61391;50.922;6.928;2023-04-30T15:17:23;21.30;72.80
34698;DHT22;61391;50.922;6.928;2023-04-30T15:19:48;21.40;73.80
34698;DHT22;61391;50.922;6.928;2023-04-30T15:22:14;21.20;72.60
34698;DHT22;61391;50.922;6.928;2023-04-30T15:24:47;21.00;73.80
34698;DHT22;61391;50.922;6.928;2023-04-30T15:27:13;20.80;74.10
34698;DHT22;61391;50.922;6.928;2023-04-30T15:29:38;20.50;74.80
34698;DHT22;61391;50.922;6.928;2023-04-30T15:32:05;20.20;75.30
34698;DHT22;61391;50.922;6.928;2023-04-30T15:34:30;20.40;75.80
34698;DHT22;61391;50.922;6.928;2023-04-30T15:36:56;20.20;75.40
34698;DHT22;61391;50.922;6.928;2023-04-30T15:39:23;20.70;75.30
34698;DHT22;61391;50.922;6.928;2023-04-30T15:41:49;20.80;75.80
34698;DHT22;61391;50.922;6.928;2023-04-30T15:44:14;20.80;75.80
34698;DHT22;61391;50.922;6.928;2023-04-30T15:46:40;20.80;75.50
34698;DHT22;61391;50.922;6.928;2023-04-30T15:49:06;20.80;77.00
34698;DHT22;61391;50.922;6.928;2023-04-30T15:51:32;20.80;77.70
34698;DHT22;61391;50.922;6.928;2023-04-30T15:53:58;20.70;77.50
34698;DHT22;61391;50.922;6.928;2023-04-30T15:56:24;20.80;78.10
34698;DHT22;61391;50.922;6.928;2023-04-30T15:58:54;20.90;77.50
34698;DHT22;61391;50.922;6.928;2023-04-30T16:01:20;21.10;78.00
34698;DHT22;61391;50.922;6.928;2023-04-30T16:03:47;20.70;76.70
34698;DHT22;61391;50.922;6.928;2023-04-30T16:06:14;20.90;77.20
34698;DHT22;61391;50.922;6.928;2023-04-30T16:08:41;20.70;77.10
34698;DHT22;61391;50.922;6.928;2023-04-30T16:11:07;20.90;77.60